Time;durP1;ratioP1;P1;durP2;ratioP2;P2;SDS_P1;SDS_P2;PMS_P1;PMS_P2;Temp;Humidity;BMP_temperature;BMP_pressure;BME280_temperature;BME280_humidity;BME280_pressure;Samples;Min_cycle;Max_cycle;Signal;HPM_P1;HPM_P2
2023/04/09 00:02:22;;;;;;;5.82;2.35;;;;;;;9.65;99.92;101009.13;5017548;28;20435;-79
2023/04/09 00:04:48;;;;;;;11.35;3.17;;;;;;;9.63;99.87;101003.13;5001802;28;20077;-80
2023/04/09 00:07:13;;;;;;;5.93;2.22;;;;;;;9.57;100.00;100992.16;5001940;28;20353;-91
2023/04/09 00:09:39;;;;;;;6.13;2.30;;;;;;;9.57;100.00;100989.50;5017662;28;20392;-85
2023/04/09 00:12:08;;;;;;;10.38;3.13;;;;;;;9.55;100.00;100988.81;5001680;28;20120;-80
2023/04/09 00:14:34;;;;;;;10.13;2.88;;;;;;;9.53;100.00;100972.88;5001709;28;20091;-82
2023/04/09 00:16:59;;;;;;;6.07;2.13;;;;;;;9.62;100.00;100990.66;5018010;28;20033;-81
2023/04/09 00:19:25;;;;;;;7.78;2.67;;;;;;;9.62;100.00;100985.31;5001305;28;20037;-81
2023/04/09 00:21:51;;;;;;;4.80;1.98;;;;;;;9.63;100.00;100981.63;5035423;28;20056;-81
2023/04/09 00:24:17;;;;;;;7.78;2.70;;;;;;;9.61;100.00;100990.84;5001580;28;20116;-90
2023/04/09 00:26:42;;;;;;;7.60;2.97;;;;;;;9.63;100.00;100983.44;5001514;28;20029;-80
2023/04/09 00:29:08;;;;;;;9.68;3.20;;;;;;;9.60;100.00;100986.47;5000657;28;20437;-82
2023/04/09 00:31:34;;;;;;;12.18;3.00;;;;;;;9.55;100.00;100978.94;5017339;28;20033;-80
2023/04/09 00:34:00;;;;;;;4.60;1.85;;;;;;;9.52;100.00;100965.81;5033758;28;20503;-87
2023/04/09 00:36:26;;;;;;;5.93;2.13;;;;;;;9.53;100.00;100958.63;5017135;28;20086;-81
2023/04/09 00:38:55;;;;;;;6.43;2.60;;;;;;;9.57;100.00;100968.00;5033819;28;20037;-85
2023/04/09 00:41:22;;;;;;;4.68;2.10;;;;;;;9.58;100.00;100973.22;5017779;28;20029;-86
2023/04/09 00:43:47;;;;;;;8.52;2.42;;;;;;;9.62;100.00;100966.50;5033340;28;20030;-85
2023/04/09 00:46:13;;;;;;;5.55;2.17;;;;;;;9.55;100.00;100957.47;5033361;28;20369;-80
2023/04/09 00:48:39;;;;;;;11.88;3.15;;;;;;;9.58;100.00;100958.94;5000729;28;20040;-79
2023/04/09 00:51:06;;;;;;;4.18;2.10;;;;;;;9.56;100.00;100959.13;5033323;28;20037;-79
2023/04/09 00:53:32;;;;;;;5.00;2.00;;;;;;;9.58;100.00;100967.00;5016906;28;20056;-79
2023/04/09 00:55:58;;;;;;;8.25;2.00;;;;;;;9.56;100.00;100964.50;5000811;28;20353;-79
2023/04/09 00:58:23;;;;;;;6.00;2.53;;;;;;;9.59;100.00;100968.69;5000739;28;20087;-79
2023/04/09 01:00:49;;;;;;;8.60;3.30;;;;;;;9.58;100.00;100953.56;5033279;28;20064;-79
2023/04/09 01:03:15;;;;;;;4.68;2.38;;;;;;;9.59;100.00;100941.84;5000259;28;20077;-79
2023/04/09 01:06:00;;;;;;;14.00;3.83;;;;;;;9.60;100.00;100938.16;5000203;28;20041;-79
2023/04/09 01:08:50;;;;;;;9.27;2.58;;;;;;;9.62;100.00;100936.16;5033388;28;20052;-79
2023/04/09 01:11:30;;;;;;;10.50;3.03;;;;;;;9.64;100.00;100940.34;5033248;28;20446;-80
2023/04/09 01:14:17;;;;;;;6.88;2.33;;;;;;;9.67;100.00;100923.06;5000531;28;20103;-79
2023/04/09 01:16:47;;;;;;;7.35;2.42;;;;;;;9.66;100.00;100922.22;5016986;28;20021;-79
2023/04/09 01:19:48;;;;;;;4.97;2.00;;;;;;;9.66;100.00;100918.72;5016954;28;20129;-79
2023/04/09 01:22:28;;;;;;;3.42;1.95;;;;;;;9.66;100.00;100914.19;5016992;28;20091;-79
2023/04/09 01:25:03;;;;;;;10.65;2.85;;;;;;;9.68;100.00;100909.50;5016513;28;20083;-81
2023/04/09 01:28:07;;;;;;;6.72;2.47;;;;;;;9.69;100.00;100908.47;5016853;28;20029;-79
2023/04/09 01:30:33;;;;;;;8.18;3.25;;;;;;;9.67;100.00;100891.69;5016425;28;20045;-79
2023/04/09 01:33:00;;;;;;;7.30;3.03;;;;;;;9.68;100.00;100908.63;5016272;28;20384;-79
2023/04/09 01:35:26;;;;;;;10.93;2.38;;;;;;;9.66;100.00;100899.91;5000196;28;20048;-79
2023/04/09 01:37:52;;;;;;;7.03;2.78;;;;;;;9.64;100.00;100897.38;4999796;28;20040;-81
2023/04/09 01:40:17;;;;;;;12.88;3.58;;;;;;;9.58;100.00;100886.47;5000072;28;20538;-78
2023/04/09 01:42:44;;;;;;;3.78;2.42;;;;;;;9.59;100.00;100870.19;5032314;28;20029;-83
2023/04/09 01:45:13;;;;;;;9.32;2.92;;;;;;;9.62;100.00;100877.91;4999649;28;20502;-79
2023/04/09 01:47:39;;;;;;;8.40;2.53;;;;;;;9.62;100.00;100871.72;5032679;28;20494;-79
2023/04/09 01:50:05;;;;;;;12.73;3.38;;;;;;;9.59;100.00;100864.84;5016392;28;20034;-78
2023/04/09 01:52:31;;;;;;;7.43;2.63;;;;;;;9.65;100.00;100872.22;5016193;28;20029;-79
2023/04/09 01:54:56;;;;;;;9.00;3.00;;;;;;;9.66;100.00;100871.22;4999935;28;20040;-79
2023/04/09 01:57:22;;;;;;;7.57;3.20;;;;;;;9.63;100.00;100868.88;4999657;28;20041;-78
2023/04/09 01:59:48;;;;;;;10.00;2.33;;;;;;;9.59;100.00;100853.25;4999849;28;20525;-79
2023/04/09 02:02:18;;;;;;;9.70;4.38;;;;;;;9.60;100.00;100860.28;5016185;28;20044;-79
2023/04/09 02:04:47;;;;;;;4.68;2.60;;;;;;;9.55;100.00;100849.22;5032605;28;20036;-79
2023/04/09 02:07:34;;;;;;;5.25;2.38;;;;;;;9.56;100.00;100856.28;5016148;28;20037;-79
2023/04/09 02:10:00;;;;;;;10.85;3.17;;;;;;;9.54;100.00;100842.19;5033406;28;20057;-79
2023/04/09 02:12:26;;;;;;;7.72;2.67;;;;;;;9.49;100.00;100828.41;5032411;28;20037;-79
2023/04/09 02:14:52;;;;;;;10.82;3.42;;;;;;;9.51;100.00;100826.41;5020368;28;20087;-79
2023/04/09 02:17:18;;;;;;;8.13;3.25;;;;;;;9.55;100.00;100833.97;4989784;28;20033;-82
2023/04/09 02:19:46;;;;;;;5.47;2.58;;;;;;;9.56;100.00;100830.28;5006376;28;20025;-80
2023/04/09 02:22:13;;;;;;;7.82;3.05;;;;;;;9.52;100.00;100834.28;5038941;28;20059;-79
2023/04/09 02:24:41;;;;;;;7.93;1.95;;;;;;;9.44;100.00;100808.28;5006150;28;20029;-79
2023/04/09 02:27:07;;;;;;;9.65;3.58;;;;;;;9.49;100.00;100815.84;5022849;28;20041;-80
2023/04/09 02:29:33;;;;;;;9.20;2.90;;;;;;;9.49;100.00;100807.78;5038496;28;20025;-81
2023/04/09 02:31:59;;;;;;;5.20;3.08;;;;;;;9.51;100.00;100805.78;5005873;28;20037;-78
2023/04/09 02:34:25;;;;;;;6.03;2.38;;;;;;;9.53;100.00;100798.41;5038651;28;20035;-79
2023/04/09 02:36:50;;;;;;;13.98;3.50;;;;;;;9.52;100.00;100795.88;5038550;28;20033;-79
2023/04/09 02:39:16;;;;;;;8.00;2.90;;;;;;;9.51;100.00;100780.78;5006230;28;20044;-79
2023/04/09 02:41:42;;;;;;;10.02;3.75;;;;;;;9.51;100.00;100789.66;5006029;28;20052;-79
2023/04/09 02:44:08;;;;;;;11.48;5.20;;;;;;;9.50;100.00;100790.69;5038318;28;20025;-78
2023/04/09 02:46:33;;;;;;;6.97;2.33;;;;;;;9.48;100.00;100792.69;5006038;28;20075;-79
2023/04/09 02:48:59;;;;;;;9.82;3.50;;;;;;;9.50;100.00;100782.63;5005829;28;20056;-78
2023/04/09 02:51:26;;;;;;;9.13;3.03;;;;;;;9.51;100.00;100775.41;5005619;28;20399;-79
2023/04/09 02:53:52;;;;;;;9.45;3.28;;;;;;;9.53;100.00;100781.47;5006186;28;20043;-79
2023/04/09 02:56:17;;;;;;;9.23;2.88;;;;;;;9.48;100.00;100773.06;5022032;28;20527;-79
2023/04/09 02:58:43;;;;;;;9.27;3.22;;;;;;;9.54;100.00;100775.91;5021827;28;20029;-79
2023/04/09 03:01:08;;;;;;;7.25;3.38;;;;;;;9.52;100.00;100783.28;5022190;28;20043;-79
2023/04/09 03:03:35;;;;;;;13.25;3.63;;;;;;;9.49;100.00;100774.75;5022192;28;20041;-79
2023/04/09 03:06:02;;;;;;;10.30;2.17;;;;;;;9.49;100.00;100786.31;5038237;28;20052;-78
2023/04/09 03:08:28;;;;;;;10.32;2.97;;;;;;;9.52;100.00;100767.19;5038236;28;20395;-80
2023/04/09 03:10:54;;;;;;;6.95;2.88;;;;;;;9.53;100.00;100776.94;5005853;28;20029;-78
2023/04/09 03:13:19;;;;;;;4.40;2.17;;;;;;;9.53;100.00;100752.78;5038108;28;20029;-78
2023/04/09 03:15:45;;;;;;;8.02;2.63;;;;;;;9.55;100.00;100763.31;5005850;28;20106;-78
2023/04/09 03:18:10;;;;;;;14.60;2.67;;;;;;;9.55;100.00;100753.44;5005547;28;20041;-79
2023/04/09 03:20:40;;;;;;;5.50;2.90;;;;;;;9.56;100.00;100747.06;5022047;28;20044;-79
2023/04/09 03:23:05;;;;;;;8.75;3.30;;;;;;;9.57;100.00;100746.03;5005887;28;20029;-80
2023/04/09 03:25:31;;;;;;;11.02;4.15;;;;;;;9.54;100.00;100751.75;5019386;28;20044;-79
2023/04/09 03:27:56;;;;;;;8.55;3.60;;;;;;;9.57;100.00;100753.25;5035006;28;20030;-79
2023/04/09 03:30:22;;;;;;;8.85;4.43;;;;;;;9.58;100.00;100757.59;5034719;28;20075;-78
2023/04/09 03:32:48;;;;;;;9.77;3.40;;;;;;;9.58;100.00;100749.56;5018925;28;20033;-80
2023/04/09 03:35:13;;;;;;;17.50;3.53;;;;;;;9.51;100.00;100737.84;5002510;28;20044;-78
2023/04/09 03:37:39;;;;;;;9.25;3.53;;;;;;;9.58;100.00;100742.38;5034757;28;20033;-79
2023/04/09 03:40:05;;;;;;;9.45;3.95;;;;;;;9.58;100.00;100739.69;5002418;28;20361;-80
2023/04/09 03:42:31;;;;;;;19.08;5.05;;;;;;;9.60;100.00;100747.53;5018474;28;20045;-80
2023/04/09 03:44:56;;;;;;;6.07;2.97;;;;;;;9.57;100.00;100743.34;5018431;28;20021;-79
2023/04/09 03:47:22;;;;;;;9.40;3.60;;;;;;;9.58;100.00;100745.03;5018564;28;20064;-79
2023/04/09 03:49:48;;;;;;;8.13;3.88;;;;;;;9.59;100.00;100732.47;5002003;28;20060;-81
2023/04/09 03:52:13;;;;;;;8.48;3.00;;;;;;;9.59;100.00;100733.28;5002073;28;20033;-79
2023/04/09 03:54:39;;;;;;;8.52;2.83;;;;;;;9.59;100.00;100722.56;5002035;28;20092;-79
2023/04/09 03:57:04;;;;;;;5.60;3.22;;;;;;;9.62;100.00;100716.00;5018240;28;20025;-79
2023/04/09 03:59:30;;;;;;;9.15;3.70;;;;;;;9.62;100.00;100719.53;5018443;28;20083;-79
2023/04/09 04:01:59;;;;;;;14.23;3.95;;;;;;;9.58;100.00;100714.66;5001314;28;20033;-81
2023/04/09 04:04:24;;;;;;;6.20;3.20;;;;;;;9.55;100.00;100697.06;5018161;28;20046;-79
2023/04/09 04:06:50;;;;;;;11.75;4.22;;;;;;;9.59;100.00;100701.06;5018065;28;20099;-79
2023/04/09 04:09:15;;;;;;;10.15;3.97;;;;;;;9.60;100.00;100693.84;5001586;28;20064;-79
2023/04/09 04:11:41;;;;;;;16.90;4.18;;;;;;;9.56;100.00;100685.31;5034029;28;20028;-81
2023/04/09 04:14:07;;;;;;;9.68;2.90;;;;;;;9.55;100.00;100691.72;5034604;28;20038;-79
2023/04/09 04:16:32;;;;;;;8.95;3.28;;;;;;;9.53;100.00;100685.66;5001801;28;20365;-79
2023/04/09 04:18:58;;;;;;;8.38;3.38;;;;;;;9.49;100.00;100678.94;5001774;28;20030;-79
2023/04/09 04:21:23;;;;;;;14.10;3.50;;;;;;;9.47;100.00;100670.22;5001762;28;20026;-79
2023/04/09 04:23:49;;;;;;;11.30;4.18;;;;;;;9.37;100.00;100645.44;5001448;28;20052;-78
2023/04/09 04:26:15;;;;;;;12.27;4.30;;;;;;;9.47;100.00;100662.16;5034366;28;20456;-81
2023/04/09 04:28:40;;;;;;;8.70;2.85;;;;;;;9.46;100.00;100655.13;5033813;28;20025;-79
2023/04/09 04:31:10;;;;;;;8.80;3.08;;;;;;;9.46;100.00;100661.34;5001560;28;20083;-79
2023/04/09 04:33:36;;;;;;;15.90;4.68;;;;;;;9.46;100.00;100660.50;5034139;28;20105;-79
2023/04/09 04:36:06;;;;;;;12.90;3.97;;;;;;;9.45;100.00;100657.00;5001427;28;20036;-80
2023/04/09 04:38:33;;;;;;;5.97;2.10;;;;;;;9.44;100.00;100636.50;5000757;28;20034;-81
2023/04/09 04:40:58;;;;;;;13.30;3.85;;;;;;;9.56;100.00;100649.59;5001226;28;20116;-79
2023/04/09 04:43:24;;;;;;;12.38;3.75;;;;;;;9.59;100.00;100643.88;5017567;28;20128;-80
2023/04/09 04:45:50;;;;;;;11.43;3.92;;;;;;;9.59;100.00;100643.88;5017022;28;20033;-79
2023/04/09 04:48:15;;;;;;;6.93;2.58;;;;;;;9.60;100.00;100637.47;5032975;28;20034;-80
2023/04/09 04:50:41;;;;;;;6.93;2.58;;;;;;;9.57;100.00;100630.59;5017002;28;20026;-79
2023/04/09 04:53:06;;;;;;;9.75;3.25;;;;;;;9.59;100.00;100628.59;5017088;28;20449;-81
2023/04/09 04:55:35;;;;;;;11.57;3.08;;;;;;;9.57;100.00;100619.03;5000977;28;20048;-79
2023/04/09 04:58:01;;;;;;;7.95;3.30;;;;;;;9.60;100.00;100616.00;5017563;28;20043;-79
2023/04/09 05:00:26;;;;;;;10.55;4.05;;;;;;;9.59;100.00;100601.75;5016498;28;20391;-79
2023/04/09 05:02:55;;;;;;;11.05;3.97;;;;;;;9.61;100.00;100602.44;5033465;28;20032;-79
2023/04/09 05:05:21;;;;;;;7.95;3.13;;;;;;;9.64;100.00;100590.50;5033068;28;20109;-78
2023/04/09 05:07:47;;;;;;;8.07;3.03;;;;;;;9.66;100.00;100592.00;5016908;28;20033;-79
2023/04/09 05:10:13;;;;;;;9.35;3.53;;;;;;;9.67;100.00;100574.88;5017040;28;20052;-79
2023/04/09 05:12:38;;;;;;;14.77;3.65;;;;;;;9.69;100.00;100590.81;5016045;28;20503;-79
2023/04/09 05:15:05;;;;;;;4.55;2.80;;;;;;;9.66;100.00;100577.75;5033326;28;20400;-80
2023/04/09 05:17:31;;;;;;;6.43;3.47;;;;;;;9.61;100.00;100575.59;5033372;28;20480;-79
2023/04/09 05:19:56;;;;;;;15.27;5.65;;;;;;;9.64;100.00;100571.72;5000236;28;20037;-80
2023/04/09 05:22:22;;;;;;;8.43;3.75;;;;;;;9.67;100.00;100569.50;5000599;28;20103;-79
2023/04/09 05:24:48;;;;;;;12.57;4.30;;;;;;;9.64;100.00;100552.91;5000111;28;20033;-80
2023/04/09 05:27:13;;;;;;;6.28;2.72;;;;;;;9.57;100.00;100546.56;5000606;28;20033;-78
2023/04/09 05:29:39;;;;;;;6.75;3.30;;;;;;;9.56;100.00;100540.38;5032749;28;20029;-78
2023/04/09 05:32:08;;;;;;;7.82;3.58;;;;;;;9.59;100.00;100553.44;5016530;28;20036;-78
2023/04/09 05:34:36;;;;;;;12.32;3.45;;;;;;;9.58;100.00;100564.34;5017481;28;20139;-79
2023/04/09 05:37:02;;;;;;;5.80;3.13;;;;;;;9.55;100.00;100564.69;5000261;28;20029;-83
2023/04/09 05:39:28;;;;;;;8.93;3.63;;;;;;;9.52;100.00;100552.44;5032934;28;20378;-79
2023/04/09 05:41:53;;;;;;;8.85;3.50;;;;;;;9.45;100.00;100549.63;5000288;28;20041;-78
2023/04/09 05:44:19;;;;;;;4.82;2.70;;;;;;;9.50;100.00;100557.19;5000016;28;20033;-78
2023/04/09 05:46:44;;;;;;;10.85;4.03;;;;;;;9.52;100.00;100554.31;5032719;28;20025;-78
2023/04/09 05:49:11;;;;;;;11.13;3.92;;;;;;;9.51;100.00;100541.91;4999147;28;20060;-79
2023/04/09 05:51:36;;;;;;;9.85;2.85;;;;;;;9.50;100.00;100549.13;5032281;28;20029;-78
2023/04/09 05:54:02;;;;;;;6.50;3.08;;;;;;;9.67;100.00;100561.44;5015926;28;20025;-78
2023/04/09 05:56:29;;;;;;;13.10;2.33;;;;;;;9.67;100.00;100561.44;5032321;28;20041;-83
2023/04/09 05:59:01;;;;;;;5.43;2.60;;;;;;;9.68;100.00;100560.47;5032071;28;20056;-78
2023/04/09 06:01:28;;;;;;;9.77;3.97;;;;;;;9.77;100.00;100560.41;4999511;28;20040;-79
2023/04/09 06:03:54;;;;;;;11.50;3.67;;;;;;;9.80;100.00;100549.31;5032661;28;20278;-78
2023/04/09 06:06:23;;;;;;;5.20;2.72;;;;;;;9.73;100.00;100526.88;5032077;28;20033;-80
2023/04/09 06:08:49;;;;;;;13.88;3.33;;;;;;;9.87;100.00;100544.91;5016127;28;20083;-79
2023/04/09 06:11:15;;;;;;;11.95;3.92;;;;;;;9.78;100.00;100522.63;5032138;28;20047;-80
2023/04/09 06:13:40;;;;;;;13.63;3.70;;;;;;;9.85;100.00;100536.19;5032444;28;20037;-79
2023/04/09 06:16:07;;;;;;;13.00;3.00;;;;;;;9.84;100.00;100531.81;5031919;28;20044;-80
2023/04/09 06:18:33;;;;;;;8.73;2.88;;;;;;;9.92;100.00;100531.78;5016261;28;20495;-79
2023/04/09 06:21:03;;;;;;;7.93;2.97;;;;;;;9.90;100.00;100523.09;5032269;28;20033;-78
2023/04/09 06:23:29;;;;;;;10.50;3.58;;;;;;;9.90;100.00;100531.16;5032375;28;20064;-79
2023/04/09 06:25:55;;;;;;;9.35;3.33;;;;;;;9.97;100.00;100529.41;5032219;28;20061;-80
2023/04/09 06:28:20;;;;;;;12.15;3.08;;;;;;;9.97;100.00;100526.72;5031651;28;20083;-79
2023/04/09 06:30:46;;;;;;;13.95;4.47;;;;;;;10.06;100.00;100533.72;5015570;28;20033;-78
2023/04/09 06:33:11;;;;;;;9.90;4.30;;;;;;;10.09;100.00;100519.09;5015888;28;20040;-79
2023/04/09 06:35:37;;;;;;;11.45;3.17;;;;;;;10.16;100.00;100521.88;5031607;28;20048;-80
2023/04/09 06:38:03;;;;;;;6.10;2.90;;;;;;;10.22;100.00;100510.44;4998788;28;20033;-80
2023/04/09 06:40:29;;;;;;;15.43;4.30;;;;;;;10.25;100.00;100505.53;5033074;28;20026;-80
2023/04/09 06:42:54;;;;;;;7.90;3.30;;;;;;;10.29;100.00;100511.41;4999273;28;20121;-79
2023/04/09 06:45:20;;;;;;;8.65;3.00;;;;;;;10.11;100.00;100490.22;4999550;28;20033;-78
2023/04/09 06:47:46;;;;;;;6.38;3.00;;;;;;;10.30;100.00;100521.16;5015570;28;20484;-79
2023/04/09 06:50:12;;;;;;;8.23;2.83;;;;;;;10.34;100.00;100527.84;4999108;28;20045;-84
2023/04/09 06:52:37;;;;;;;8.40;3.38;;;;;;;10.33;100.00;100526.16;4999067;28;20467;-86
2023/04/09 06:55:03;;;;;;;6.25;2.60;;;;;;;10.40;100.00;100531.66;5031399;28;20057;-83
2023/04/09 06:57:29;;;;;;;9.20;3.83;;;;;;;10.38;100.00;100534.53;4998843;28;20061;-78
2023/04/09 06:59:55;;;;;;;6.30;2.70;;;;;;;10.33;100.00;100524.31;5032977;28;20041;-80
2023/04/09 07:02:21;;;;;;;12.48;3.47;;;;;;;10.27;100.00;100522.34;5035256;28;20029;-82
2023/04/09 07:04:46;;;;;;;12.52;4.28;;;;;;;10.44;100.00;100547.25;5035145;28;20048;-81
2023/04/09 07:07:12;;;;;;;15.38;4.00;;;;;;;10.48;100.00;100545.88;5018752;28;20037;-79
2023/04/09 07:09:38;;;;;;;7.35;2.53;;;;;;;10.49;100.00;100552.91;5002485;28;20036;-78
2023/04/09 07:12:03;;;;;;;8.45;3.25;;;;;;;10.45;100.00;100546.25;5035238;28;20025;-81
2023/04/09 07:14:29;;;;;;;8.23;2.30;;;;;;;10.39;100.00;100546.94;5035666;28;20384;-82
2023/04/09 07:16:55;;;;;;;9.77;3.38;;;;;;;10.30;100.00;100531.91;5002202;28;20037;-79
2023/04/09 07:19:20;;;;;;;12.70;3.47;;;;;;;10.38;100.00;100556.03;5002493;28;20037;-79
2023/04/09 07:21:46;;;;;;;9.32;3.17;;;;;;;10.35;100.00;100540.28;5034987;28;20104;-79
2023/04/09 07:24:11;;;;;;;10.85;3.60;;;;;;;10.36;100.00;100544.63;5018858;28;20052;-79
2023/04/09 07:26:37;;;;;;;12.68;4.82;;;;;;;10.35;100.00;100542.97;5035439;28;20025;-79
2023/04/09 07:29:03;;;;;;;16.38;6.88;;;;;;;10.34;100.00;100536.72;5001913;28;20487;-79
2023/04/09 07:31:29;;;;;;;13.68;4.15;;;;;;;10.32;100.00;100549.53;5018861;28;20033;-80
2023/04/09 07:33:55;;;;;;;14.07;5.40;;;;;;;10.22;100.00;100534.63;5035080;28;20029;-80
2023/04/09 07:36:21;;;;;;;10.43;5.25;;;;;;;10.21;100.00;100541.00;5017987;28;20029;-79
2023/04/09 07:38:47;;;;;;;7.25;4.10;;;;;;;10.16;100.00;100540.69;5034805;28;20392;-80
2023/04/09 07:41:13;;;;;;;14.05;5.05;;;;;;;10.02;100.00;100539.63;5001602;28;20048;-79
2023/04/09 07:43:39;;;;;;;14.90;5.13;;;;;;;9.92;100.00;100545.22;5018376;28;20049;-79
2023/04/09 07:46:05;;;;;;;6.40;3.63;;;;;;;9.95;100.00;100538.66;5018071;28;20033;-79
2023/04/09 07:48:31;;;;;;;9.98;4.82;;;;;;;9.95;100.00;100542.19;5035317;28;20028;-79
2023/04/09 07:50:56;;;;;;;9.30;4.85;;;;;;;9.90;100.00;100540.03;5001821;28;20124;-79
2023/04/09 07:53:22;;;;;;;11.10;4.18;;;;;;;9.86;100.00;100537.88;5018383;28;20403;-79
2023/04/09 07:55:50;;;;;;;8.77;3.25;;;;;;;9.78;100.00;100533.38;5001664;28;20033;-88
2023/04/09 07:58:15;;;;;;;11.80;4.95;;;;;;;9.75;100.00;100538.28;5001823;28;20151;-79
2023/04/09 08:00:41;;;;;;;15.50;5.85;;;;;;;9.70;100.00;100533.41;5034535;28;20030;-80
2023/04/09 08:03:07;;;;;;;8.38;5.30;;;;;;;9.68;100.00;100544.34;5001715;28;20045;-87
2023/04/09 08:05:34;;;;;;;7.97;4.18;;;;;;;9.69;100.00;100532.59;5017267;28;20097;-79
2023/04/09 08:07:59;;;;;;;5.63;2.20;;;;;;;9.65;100.00;100528.56;5017623;28;20120;-82
2023/04/09 08:10:25;;;;;;;12.85;4.03;;;;;;;9.64;100.00;100526.06;5035433;28;20504;-79
2023/04/09 08:12:51;;;;;;;13.23;4.72;;;;;;;9.62;100.00;100530.78;5017343;28;20034;-81
2023/04/09 08:15:16;;;;;;;5.05;2.50;;;;;;;9.60;100.00;100522.88;5001417;28;20476;-80
2023/04/09 08:17:42;;;;;;;14.32;5.15;;;;;;;9.61;100.00;100515.69;5001277;28;20037;-80
2023/04/09 08:20:08;;;;;;;9.80;4.25;;;;;;;9.62;100.00;100520.88;5002559;28;20147;-83
2023/04/09 08:22:34;;;;;;;9.55;4.97;;;;;;;9.69;100.00;100512.97;5034352;28;20032;-84
2023/04/09 08:25:00;;;;;;;5.63;3.03;;;;;;;9.74;100.00;100515.97;5016920;28;20029;-80
2023/04/09 08:27:26;;;;;;;6.38;3.50;;;;;;;9.83;100.00;100511.38;5017153;28;20030;-85
2023/04/09 08:29:52;;;;;;;7.22;3.75;;;;;;;9.93;100.00;100501.25;5033839;28;20026;-85
2023/04/09 08:32:21;;;;;;;12.15;4.38;;;;;;;10.02;100.00;100502.00;5001940;28;20029;-80
2023/04/09 08:34:47;;;;;;;9.80;4.47;;;;;;;10.11;100.00;100493.72;5000911;28;20513;-80
2023/04/09 08:37:12;;;;;;;9.40;3.67;;;;;;;10.17;100.00;100494.03;5033023;28;20072;-80
2023/04/09 08:39:38;;;;;;;4.32;2.78;;;;;;;10.20;100.00;100489.13;5017178;28;20476;-84
2023/04/09 08:42:06;;;;;;;8.32;3.70;;;;;;;10.26;100.00;100487.56;5033609;28;20029;-86
2023/04/09 08:44:31;;;;;;;9.57;4.90;;;;;;;10.29;100.00;100489.91;5016465;28;20030;-85
2023/04/09 08:46:59;;;;;;;8.18;4.00;;;;;;;10.16;100.00;100486.97;5033437;28;20103;-89
2023/04/09 08:49:24;;;;;;;6.50;3.47;;;;;;;10.04;100.00;100484.69;5016907;28;20035;-85
2023/04/09 08:51:50;;;;;;;12.05;5.85;;;;;;;9.94;100.00;100473.34;5000913;28;20037;-87
2023/04/09 08:54:18;;;;;;;11.30;5.05;;;;;;;9.91;100.00;100476.41;5000771;28;20049;-89
2023/04/09 08:56:47;;;;;;;10.05;3.20;;;;;;;9.85;100.00;100471.75;5017068;28;20469;-89
2023/04/09 08:59:20;;;;;;;4.43;2.72;;;;;;;9.81;100.00;100473.09;5016591;28;20056;-92
2023/04/09 09:01:48;;;;;;;10.00;5.15;;;;;;;9.79;100.00;100470.63;5016690;28;20100;-80
2023/04/09 09:04:14;;;;;;;11.45;5.38;;;;;;;9.85;100.00;100452.97;5033256;28;20033;-78
2023/04/09 09:06:40;;;;;;;8.48;4.00;;;;;;;9.93;100.00;100462.81;5033292;28;20468;-78
2023/04/09 09:09:08;;;;;;;8.85;3.65;;;;;;;10.09;100.00;100460.00;5032925;28;20551;-78
2023/04/09 09:11:42;;;;;;;10.68;4.47;;;;;;;10.16;100.00;100463.66;5016601;28;20025;-78
2023/04/09 09:14:09;;;;;;;14.25;4.80;;;;;;;10.18;100.00;100463.44;5000623;28;20037;-78
2023/04/09 09:16:46;;;;;;;13.05;6.45;;;;;;;10.18;100.00;100452.69;5000536;28;20064;-77
2023/04/09 09:19:24;;;;;;;7.05;3.95;;;;;;;10.25;100.00;100464.41;5001786;28;20037;-77
2023/04/09 09:22:12;;;;;;;5.68;2.90;;;;;;;10.22;100.00;100451.34;5033666;28;20037;-83
2023/04/09 09:24:51;;;;;;;6.13;3.20;;;;;;;10.22;100.00;100448.66;5032082;28;20036;-78
2023/04/09 09:27:35;;;;;;;12.88;5.60;;;;;;;10.30;100.00;100456.66;5016711;28;20120;-78
2023/04/09 09:30:04;;;;;;;7.68;3.08;;;;;;;10.43;100.00;100456.88;5016592;28;20037;-81
2023/04/09 09:32:31;;;;;;;4.50;2.67;;;;;;;10.46;100.00;100461.06;4999980;28;20495;-79
2023/04/09 09:35:01;;;;;;;6.07;3.75;;;;;;;10.34;100.00;100431.09;5032701;28;20037;-78
2023/04/09 09:37:28;;;;;;;6.85;3.05;;;;;;;10.38;100.00;100407.38;5000051;28;20424;-78
2023/04/09 09:39:54;;;;;;;25.42;4.60;;;;;;;10.59;100.00;100455.06;5032780;28;20041;-78
2023/04/09 09:42:20;;;;;;;5.13;2.65;;;;;;;10.64;100.00;100450.81;5032541;28;20033;-83
2023/04/09 09:44:46;;;;;;;4.40;2.55;;;;;;;10.73;100.00;100443.47;5000066;28;20037;-77
2023/04/09 09:47:14;;;;;;;4.95;2.95;;;;;;;10.91;100.00;100449.31;5000166;28;20139;-79
2023/04/09 09:49:40;;;;;;;9.40;3.88;;;;;;;11.08;100.00;100441.88;5032483;28;20026;-78
2023/04/09 09:52:08;;;;;;;7.63;3.22;;;;;;;11.26;100.00;100436.13;5016242;28;20460;-78
2023/04/09 09:54:41;;;;;;;14.98;4.82;;;;;;;11.45;100.00;100437.38;4999690;28;20034;-78
2023/04/09 09:57:09;;;;;;;11.60;4.80;;;;;;;11.73;100.00;100442.03;4999709;28;20507;-77
2023/04/09 09:59:49;;;;;;;5.38;2.72;;;;;;;11.86;100.00;100440.34;5000268;28;20029;-83
2023/04/09 10:02:20;;;;;;;11.30;4.05;;;;;;;11.92;100.00;100435.22;5016280;28;20045;-78
2023/04/09 10:04:48;;;;;;;3.53;2.45;;;;;;;11.96;100.00;100425.72;4999782;28;20472;-78
2023/04/09 10:07:16;;;;;;;6.80;2.72;;;;;;;12.14;100.00;100434.16;5000454;28;20103;-78
2023/04/09 10:09:45;;;;;;;2.97;2.28;;;;;;;12.22;100.00;100431.34;5015926;28;20476;-77
2023/04/09 10:12:11;;;;;;;7.63;2.95;;;;;;;12.24;100.00;100423.88;5015750;28;20033;-78
2023/04/09 10:14:37;;;;;;;5.35;2.70;;;;;;;12.27;100.00;100417.28;5016009;28;20056;-79
2023/04/09 10:17:03;;;;;;;7.47;3.00;;;;;;;12.36;100.00;100409.88;5032272;28;20671;-79
2023/04/09 10:19:30;;;;;;;5.03;3.15;;;;;;;12.39;100.00;100402.25;5015865;28;20472;-78
2023/04/09 10:22:06;;;;;;;4.35;2.20;;;;;;;12.57;100.00;100406.28;5015673;28;20064;-77
2023/04/09 10:24:34;;;;;;;7.20;3.38;;;;;;;12.57;100.00;100403.59;5031839;28;20499;-78
2023/04/09 10:27:11;;;;;;;6.32;3.00;;;;;;;12.57;100.00;100406.28;5032071;28;20041;-78
2023/04/09 10:29:45;;;;;;;7.22;2.92;;;;;;;12.49;100.00;100409.97;4999390;28;20037;-79
2023/04/09 10:32:11;;;;;;;4.78;2.42;;;;;;;12.44;100.00;100398.97;5015799;28;20184;-78
2023/04/09 10:34:42;;;;;;;6.43;2.67;;;;;;;12.61;100.00;100399.47;5032224;28;20484;-78
2023/04/09 10:37:11;;;;;;;6.18;2.78;;;;;;;12.71;100.00;100402.66;5003542;28;20064;-79
2023/04/09 10:39:43;;;;;;;4.97;2.70;;;;;;;12.67;100.00;100407.59;5003873;28;20041;-79
2023/04/09 10:42:14;;;;;;;4.72;2.30;;;;;;;12.51;100.00;100410.59;5019698;28;20062;-78
2023/04/09 10:44:40;;;;;;;2.47;1.73;;;;;;;12.37;100.00;100420.47;5035942;28;20388;-78
2023/04/09 10:47:08;;;;;;;5.70;2.83;;;;;;;12.13;100.00;100421.72;5003463;28;20026;-78
2023/04/09 10:49:38;;;;;;;5.28;2.72;;;;;;;11.84;100.00;100418.13;5035701;28;20529;-78
2023/04/09 10:52:05;;;;;;;4.38;2.08;;;;;;;11.93;100.00;100423.41;5036133;28;20548;-78
2023/04/09 10:54:33;;;;;;;4.22;2.33;;;;;;;11.88;100.00;100434.75;5005291;28;20075;-78
2023/04/09 10:57:05;;;;;;;4.00;1.65;;;;;;;11.87;100.00;100436.63;5022245;28;20041;-80
2023/04/09 10:59:39;;;;;;;3.17;1.75;;;;;;;11.87;100.00;100433.09;5036530;28;20064;-81
2023/04/09 11:02:08;;;;;;;2.08;1.35;;;;;;;11.85;100.00;100427.03;5035695;28;20030;-82
2023/04/09 11:04:44;;;;;;;7.35;2.88;;;;;;;12.12;100.00;100406.59;5002991;28;20476;-79
2023/04/09 11:07:10;;;;;;;5.65;3.22;;;;;;;12.41;100.00;100415.50;5019064;28;20065;-79
2023/04/09 11:09:36;;;;;;;8.13;3.35;;;;;;;12.87;100.00;100390.72;5036007;28;20053;-79
2023/04/09 11:12:02;;;;;;;8.55;5.43;;;;;;;13.26;100.00;100381.09;5034899;28;20472;-81
2023/04/09 11:14:31;;;;;;;9.68;4.78;;;;;;;13.48;100.00;100358.34;5035434;28;20476;-80
2023/04/09 11:17:14;;;;;;;9.18;3.30;;;;;;;13.77;100.00;100356.31;5019954;28;20040;-79
2023/04/09 11:19:43;;;;;;;9.70;5.15;;;;;;;14.04;100.00;100371.50;5018390;28;20045;-78
2023/04/09 11:22:09;;;;;;;4.90;2.63;;;;;;;14.11;100.00;100378.78;5018338;28;20021;-81